TimeEST,TemperatureF,Dew PointF,Humidity,Sea Level PressureIn,VisibilityMPH,Wind Direction,Wind SpeedMPH,Gust SpeedMPH,PrecipitationIn,Events,Conditions,WindDirDegrees,DateUTC
12:54 AM,37.0,23.0,57,30.55,10.0,West,8.1,-,N/A,,Overcast,280,2012-11-14 05:54:00
1:54 AM,37.0,23.0,57,30.56,10.0,West,8.1,-,N/A,,Overcast,280,2012-11-14 06:54:00
2:54 AM,36.0,24.1,62,30.56,10.0,West,6.9,-,N/A,,Overcast,280,2012-11-14 07:54:00
3:54 AM,36.0,23.0,59,30.57,10.0,West,6.9,-,N/A,,Overcast,270,2012-11-14 08:54:00
4:54 AM,37.0,23.0,57,30.58,10.0,West,8.1,-,N/A,,Overcast,280,2012-11-14 09:54:00
5:54 AM,36.0,23.0,59,30.59,10.0,West,4.6,-,N/A,,Overcast,280,2012-11-14 10:54:00
6:54 AM,36.0,24.1,62,30.60,10.0,West,4.6,-,N/A,,Overcast,260,2012-11-14 11:54:00
7:54 AM,37.0,25.0,62,30.61,10.0,Calm,Calm,-,N/A,,Overcast,0,2012-11-14 12:54:00
8:54 AM,37.0,25.0,62,30.62,10.0,Calm,Calm,-,N/A,,Overcast,0,2012-11-14 13:54:00
9:54 AM,37.9,26.1,62,30.62,10.0,Calm,Calm,-,N/A,,Overcast,0,2012-11-14 14:54:00
10:54 AM,39.0,27.0,62,30.62,10.0,NW,3.5,-,N/A,,Overcast,310,2012-11-14 15:54:00
11:54 AM,39.9,30.0,68,30.60,10.0,North,4.6,-,N/A,,Overcast,10,2012-11-14 16:54:00
12:54 PM,39.0,30.0,70,30.58,10.0,NW,4.6,-,N/A,,Overcast,310,2012-11-14 17:54:00
1:54 PM,39.9,28.9,65,30.58,10.0,Calm,Calm,-,N/A,,Overcast,0,2012-11-14 18:54:00
2:54 PM,39.9,28.9,65,30.56,10.0,Calm,Calm,-,N/A,,Overcast,0,2012-11-14 19:54:00
3:54 PM,39.9,28.9,65,30.57,10.0,Calm,Calm,-,N/A,,Overcast,0,2012-11-14 20:54:00
4:54 PM,39.0,28.0,65,30.55,10.0,Calm,Calm,-,N/A,,Overcast,0,2012-11-14 21:54:00
5:54 PM,39.9,27.0,60,30.55,10.0,Calm,Calm,-,N/A,,Overcast,0,2012-11-14 22:54:00
6:54 PM,37.9,26.1,62,30.55,10.0,ENE,4.6,-,N/A,,Mostly Cloudy,70,2012-11-14 23:54:00
7:54 PM,36.0,27.0,70,30.54,10.0,East,4.6,-,N/A,,Partly Cloudy,100,2012-11-15 00:54:00
8:54 PM,34.0,27.0,75,30.53,10.0,Calm,Calm,-,N/A,,Scattered Clouds,0,2012-11-15 01:54:00
9:54 PM,33.1,27.0,78,30.52,10.0,Calm,Calm,-,N/A,,Clear,0,2012-11-15 02:54:00
10:54 PM,28.9,26.1,89,30.51,10.0,Calm,Calm,-,N/A,,Clear,0,2012-11-15 03:54:00
11:54 PM,28.9,26.1,89,30.51,10.0,SW,3.5,-,N/A,,Partly Cloudy,230,2012-11-15 04:54:00